sensor_id;sensor_type;location;lat;lon;timestamp;P1;durP1;ratioP1;P2;durP2;ratioP2
61709;SDS011;47633;51.494;5.386;2022-12-07T00:01:10;3.45;;;1.85;;
61709;SDS011;47633;51.494;5.386;2022-12-07T00:03:40;3.90;;;1.73;;
61709;SDS011;47633;51.494;5.386;2022-12-07T00:06:07;3.47;;;1.70;;
61709;SDS011;47633;51.494;5.386;2022-12-07T00:08:34;4.05;;;1.85;;
61709;SDS011;47633;51.494;5.386;2022-12-07T00:11:00;3.17;;;1.60;;
61709;SDS011;47633;51.494;5.386;2022-12-07T00:13:33;3.60;;;1.60;;
61709;SDS011;47633;51.494;5.386;2022-12-07T00:16:03;4.05;;;1.60;;
61709;SDS011;47633;51.494;5.386;2022-12-07T00:18:31;4.43;;;1.67;;
61709;SDS011;47633;51.494;5.386;2022-12-07T00:21:03;2.85;;;1.38;;
61709;SDS011;47633;51.494;5.386;2022-12-07T00:23:31;4.45;;;1.60;;
61709;SDS011;47633;51.494;5.386;2022-12-07T00:26:02;3.05;;;1.67;;
61709;SDS011;47633;51.494;5.386;2022-12-07T00:28:29;3.55;;;1.70;;
61709;SDS011;47633;51.494;5.386;2022-12-07T00:30:59;3.47;;;1.63;;
61709;SDS011;47633;51.494;5.386;2022-12-07T00:33:26;3.35;;;1.75;;
61709;SDS011;47633;51.494;5.386;2022-12-07T00:35:56;4.25;;;1.80;;
61709;SDS011;47633;51.494;5.386;2022-12-07T00:38:22;3.80;;;1.75;;
61709;SDS011;47633;51.494;5.386;2022-12-07T00:41:02;3.67;;;1.65;;
61709;SDS011;47633;51.494;5.386;2022-12-07T00:43:31;3.50;;;1.70;;
61709;SDS011;47633;51.494;5.386;2022-12-07T00:45:57;2.70;;;1.50;;
61709;SDS011;47633;51.494;5.386;2022-12-07T00:48:23;2.85;;;1.40;;
61709;SDS011;47633;51.494;5.386;2022-12-07T00:50:49;3.67;;;1.55;;
61709;SDS011;47633;51.494;5.386;2022-12-07T00:53:14;3.40;;;1.67;;
61709;SDS011;47633;51.494;5.386;2022-12-07T00:55:40;3.33;;;1.50;;
61709;SDS011;47633;51.494;5.386;2022-12-07T00:58:05;3.42;;;1.60;;
61709;SDS011;47633;51.494;5.386;2022-12-07T01:00:31;3.83;;;1.60;;
61709;SDS011;47633;51.494;5.386;2022-12-07T01:02:57;3.72;;;1.60;;
61709;SDS011;47633;51.494;5.386;2022-12-07T01:05:22;4.57;;;1.60;;
61709;SDS011;47633;51.494;5.386;2022-12-07T01:07:47;3.08;;;1.40;;
61709;SDS011;47633;51.494;5.386;2022-12-07T01:10:13;3.83;;;1.60;;
61709;SDS011;47633;51.494;5.386;2022-12-07T01:12:39;2.95;;;1.40;;
61709;SDS011;47633;51.494;5.386;2022-12-07T01:15:05;2.92;;;1.50;;
61709;SDS011;47633;51.494;5.386;2022-12-07T01:17:31;2.63;;;1.35;;
61709;SDS011;47633;51.494;5.386;2022-12-07T01:19:56;3.03;;;1.60;;
61709;SDS011;47633;51.494;5.386;2022-12-07T01:22:21;3.35;;;1.50;;
61709;SDS011;47633;51.494;5.386;2022-12-07T01:24:47;3.40;;;1.30;;
61709;SDS011;47633;51.494;5.386;2022-12-07T01:27:12;3.47;;;1.52;;
61709;SDS011;47633;51.494;5.386;2022-12-07T01:29:38;3.60;;;1.77;;
61709;SDS011;47633;51.494;5.386;2022-12-07T01:32:03;3.83;;;1.60;;
61709;SDS011;47633;51.494;5.386;2022-12-07T01:34:29;3.72;;;1.85;;
61709;SDS011;47633;51.494;5.386;2022-12-07T01:36:54;3.20;;;1.38;;
61709;SDS011;47633;51.494;5.386;2022-12-07T01:39:19;2.78;;;1.25;;
61709;SDS011;47633;51.494;5.386;2022-12-07T01:41:46;3.20;;;1.30;;
61709;SDS011;47633;51.494;5.386;2022-12-07T01:44:28;3.53;;;1.60;;
61709;SDS011;47633;51.494;5.386;2022-12-07T01:51:58;3.05;;;1.38;;
61709;SDS011;47633;51.494;5.386;2022-12-07T01:54:31;4.65;;;1.40;;
61709;SDS011;47633;51.494;5.386;2022-12-07T01:56:57;2.50;;;1.42;;
61709;SDS011;47633;51.494;5.386;2022-12-07T01:59:24;2.65;;;1.30;;
61709;SDS011;47633;51.494;5.386;2022-12-07T02:01:51;3.05;;;1.50;;
61709;SDS011;47633;51.494;5.386;2022-12-07T02:04:17;2.85;;;1.15;;
61709;SDS011;47633;51.494;5.386;2022-12-07T02:06:43;3.38;;;1.40;;
61709;SDS011;47633;51.494;5.386;2022-12-07T02:09:10;2.53;;;1.15;;
61709;SDS011;47633;51.494;5.386;2022-12-07T02:11:37;3.42;;;1.52;;
61709;SDS011;47633;51.494;5.386;2022-12-07T02:14:03;3.95;;;1.50;;
61709;SDS011;47633;51.494;5.386;2022-12-07T02:28:09;3.03;;;1.40;;
61709;SDS011;47633;51.494;5.386;2022-12-07T02:30:42;3.13;;;1.30;;
61709;SDS011;47633;51.494;5.386;2022-12-07T02:33:13;2.85;;;1.25;;
61709;SDS011;47633;51.494;5.386;2022-12-07T02:36:04;3.50;;;1.38;;
61709;SDS011;47633;51.494;5.386;2022-12-07T02:38:48;2.67;;;1.27;;
61709;SDS011;47633;51.494;5.386;2022-12-07T02:41:22;2.20;;;1.15;;
61709;SDS011;47633;51.494;5.386;2022-12-07T02:43:55;3.38;;;1.30;;
61709;SDS011;47633;51.494;5.386;2022-12-07T02:46:36;3.67;;;1.38;;
61709;SDS011;47633;51.494;5.386;2022-12-07T02:49:05;3.55;;;1.30;;
61709;SDS011;47633;51.494;5.386;2022-12-07T02:51:51;4.15;;;1.38;;
61709;SDS011;47633;51.494;5.386;2022-12-07T02:54:18;2.75;;;1.10;;
61709;SDS011;47633;51.494;5.386;2022-12-07T02:59:25;2.63;;;1.20;;
61709;SDS011;47633;51.494;5.386;2022-12-07T03:04:33;2.95;;;1.25;;
61709;SDS011;47633;51.494;5.386;2022-12-07T03:12:33;2.97;;;1.35;;
61709;SDS011;47633;51.494;5.386;2022-12-07T03:15:07;3.78;;;1.30;;
61709;SDS011;47633;51.494;5.386;2022-12-07T03:17:39;2.47;;;1.20;;
61709;SDS011;47633;51.494;5.386;2022-12-07T03:20:09;3.20;;;1.40;;
61709;SDS011;47633;51.494;5.386;2022-12-07T03:22:38;3.22;;;1.23;;
61709;SDS011;47633;51.494;5.386;2022-12-07T03:25:08;2.50;;;1.00;;
61709;SDS011;47633;51.494;5.386;2022-12-07T03:27:39;3.67;;;1.25;;
61709;SDS011;47633;51.494;5.386;2022-12-07T03:30:10;2.67;;;1.08;;
61709;SDS011;47633;51.494;5.386;2022-12-07T03:40:48;2.65;;;1.08;;
61709;SDS011;47633;51.494;5.386;2022-12-07T03:43:19;2.97;;;1.23;;
61709;SDS011;47633;51.494;5.386;2022-12-07T03:46:10;2.40;;;0.90;;
61709;SDS011;47633;51.494;5.386;2022-12-07T03:48:55;2.13;;;1.00;;
61709;SDS011;47633;51.494;5.386;2022-12-07T03:52:24;2.97;;;1.02;;
61709;SDS011;47633;51.494;5.386;2022-12-07T03:54:31;2.55;;;1.10;;
61709;SDS011;47633;51.494;5.386;2022-12-07T03:57:02;2.85;;;1.10;;
61709;SDS011;47633;51.494;5.386;2022-12-07T03:59:29;3.13;;;1.10;;
61709;SDS011;47633;51.494;5.386;2022-12-07T04:01:56;2.83;;;1.17;;
61709;SDS011;47633;51.494;5.386;2022-12-07T04:04:26;3.72;;;1.30;;
61709;SDS011;47633;51.494;5.386;2022-12-07T04:06:51;2.63;;;1.00;;
61709;SDS011;47633;51.494;5.386;2022-12-07T04:09:17;2.22;;;1.10;;
61709;SDS011;47633;51.494;5.386;2022-12-07T04:11:42;2.40;;;1.17;;
61709;SDS011;47633;51.494;5.386;2022-12-07T04:14:08;2.25;;;1.00;;
61709;SDS011;47633;51.494;5.386;2022-12-07T04:16:55;2.97;;;1.05;;
61709;SDS011;47633;51.494;5.386;2022-12-07T04:19:29;3.20;;;1.20;;
61709;SDS011;47633;51.494;5.386;2022-12-07T04:21:56;2.67;;;1.08;;
61709;SDS011;47633;51.494;5.386;2022-12-07T04:24:23;2.40;;;0.90;;
61709;SDS011;47633;51.494;5.386;2022-12-07T04:26:48;2.83;;;1.10;;
61709;SDS011;47633;51.494;5.386;2022-12-07T04:29:15;2.67;;;1.00;;
61709;SDS011;47633;51.494;5.386;2022-12-07T04:31:41;4.85;;;1.00;;
61709;SDS011;47633;51.494;5.386;2022-12-07T04:34:07;2.70;;;1.10;;
61709;SDS011;47633;51.494;5.386;2022-12-07T04:36:33;2.40;;;0.90;;
61709;SDS011;47633;51.494;5.386;2022-12-07T04:38:59;3.58;;;1.60;;
61709;SDS011;47633;51.494;5.386;2022-12-07T04:41:25;3.03;;;1.02;;
61709;SDS011;47633;51.494;5.386;2022-12-07T04:43:55;4.18;;;1.17;;
61709;SDS011;47633;51.494;5.386;2022-12-07T04:46:22;2.58;;;0.98;;
61709;SDS011;47633;51.494;5.386;2022-12-07T04:48:49;3.20;;;1.20;;
61709;SDS011;47633;51.494;5.386;2022-12-07T04:51:19;2.05;;;1.00;;
61709;SDS011;47633;51.494;5.386;2022-12-07T04:53:46;2.47;;;1.00;;
61709;SDS011;47633;51.494;5.386;2022-12-07T04:56:11;3.03;;;1.00;;
61709;SDS011;47633;51.494;5.386;2022-12-07T04:58:36;2.30;;;1.00;;
61709;SDS011;47633;51.494;5.386;2022-12-07T05:01:02;3.95;;;1.13;;
61709;SDS011;47633;51.494;5.386;2022-12-07T05:03:27;2.50;;;1.00;;
61709;SDS011;47633;51.494;5.386;2022-12-07T05:05:52;2.30;;;0.90;;
61709;SDS011;47633;51.494;5.386;2022-12-07T05:08:17;3.83;;;1.20;;
61709;SDS011;47633;51.494;5.386;2022-12-07T05:10:43;2.38;;;1.10;;
61709;SDS011;47633;51.494;5.386;2022-12-07T05:13:08;2.63;;;1.00;;
61709;SDS011;47633;51.494;5.386;2022-12-07T05:15:33;2.37;;;1.00;;
61709;SDS011;47633;51.494;5.386;2022-12-07T05:17:59;3.05;;;1.30;;
61709;SDS011;47633;51.494;5.386;2022-12-07T05:20:24;3.28;;;1.00;;
61709;SDS011;47633;51.494;5.386;2022-12-07T05:22:49;3.55;;;1.00;;
61709;SDS011;47633;51.494;5.386;2022-12-07T05:25:14;2.42;;;1.00;;
61709;SDS011;47633;51.494;5.386;2022-12-07T05:27:40;3.38;;;1.20;;
61709;SDS011;47633;51.494;5.386;2022-12-07T05:30:05;2.22;;;1.02;;
61709;SDS011;47633;51.494;5.386;2022-12-07T05:32:31;2.08;;;1.00;;
61709;SDS011;47633;51.494;5.386;2022-12-07T05:34:56;2.05;;;0.88;;
61709;SDS011;47633;51.494;5.386;2022-12-07T05:37:21;2.20;;;0.88;;
61709;SDS011;47633;51.494;5.386;2022-12-07T05:39:47;2.28;;;0.90;;
61709;SDS011;47633;51.494;5.386;2022-12-07T05:42:12;2.22;;;0.90;;
61709;SDS011;47633;51.494;5.386;2022-12-07T05:44:46;3.25;;;1.00;;
61709;SDS011;47633;51.494;5.386;2022-12-07T05:47:12;2.08;;;0.80;;
61709;SDS011;47633;51.494;5.386;2022-12-07T05:49:39;2.10;;;0.90;;
61709;SDS011;47633;51.494;5.386;2022-12-07T05:52:05;3.85;;;1.10;;
61709;SDS011;47633;51.494;5.386;2022-12-07T05:54:30;2.33;;;0.90;;
61709;SDS011;47633;51.494;5.386;2022-12-07T05:56:56;2.50;;;0.90;;
61709;SDS011;47633;51.494;5.386;2022-12-07T05:59:21;2.75;;;0.80;;
61709;SDS011;47633;51.494;5.386;2022-12-07T06:04:16;1.67;;;0.70;;
61709;SDS011;47633;51.494;5.386;2022-12-07T06:06:42;2.47;;;0.80;;
61709;SDS011;47633;51.494;5.386;2022-12-07T06:09:07;3.00;;;1.00;;
61709;SDS011;47633;51.494;5.386;2022-12-07T06:11:32;2.45;;;0.77;;
61709;SDS011;47633;51.494;5.386;2022-12-07T06:14:16;1.80;;;0.75;;
61709;SDS011;47633;51.494;5.386;2022-12-07T06:16:42;1.90;;;0.70;;
61709;SDS011;47633;51.494;5.386;2022-12-07T06:19:07;2.25;;;0.70;;
61709;SDS011;47633;51.494;5.386;2022-12-07T06:21:32;2.08;;;0.80;;
61709;SDS011;47633;51.494;5.386;2022-12-07T06:23:57;1.70;;;0.55;;
61709;SDS011;47633;51.494;5.386;2022-12-07T06:26:23;2.53;;;0.77;;
61709;SDS011;47633;51.494;5.386;2022-12-07T06:28:48;1.88;;;0.75;;
61709;SDS011;47633;51.494;5.386;2022-12-07T06:31:14;2.28;;;0.82;;
61709;SDS011;47633;51.494;5.386;2022-12-07T06:33:39;1.23;;;0.60;;
61709;SDS011;47633;51.494;5.386;2022-12-07T06:36:05;2.45;;;0.70;;
61709;SDS011;47633;51.494;5.386;2022-12-07T06:38:30;1.65;;;0.60;;
61709;SDS011;47633;51.494;5.386;2022-12-07T06:40:56;1.92;;;0.70;;
61709;SDS011;47633;51.494;5.386;2022-12-07T06:43:21;3.22;;;0.90;;
61709;SDS011;47633;51.494;5.386;2022-12-07T06:45:46;2.42;;;0.93;;
61709;SDS011;47633;51.494;5.386;2022-12-07T06:48:11;2.05;;;0.80;;
61709;SDS011;47633;51.494;5.386;2022-12-07T06:50:37;2.85;;;0.70;;
61709;SDS011;47633;51.494;5.386;2022-12-07T06:53:02;1.35;;;0.60;;
61709;SDS011;47633;51.494;5.386;2022-12-07T06:55:27;3.30;;;0.80;;
61709;SDS011;47633;51.494;5.386;2022-12-07T06:57:52;3.20;;;0.80;;
61709;SDS011;47633;51.494;5.386;2022-12-07T07:00:18;2.28;;;0.70;;
61709;SDS011;47633;51.494;5.386;2022-12-07T07:02:43;2.55;;;0.70;;
61709;SDS011;47633;51.494;5.386;2022-12-07T07:05:09;2.58;;;0.80;;
61709;SDS011;47633;51.494;5.386;2022-12-07T07:07:34;2.20;;;0.70;;
61709;SDS011;47633;51.494;5.386;2022-12-07T07:09:59;3.45;;;1.08;;
61709;SDS011;47633;51.494;5.386;2022-12-07T07:12:24;2.15;;;0.90;;
61709;SDS011;47633;51.494;5.386;2022-12-07T07:14:50;2.47;;;0.77;;
61709;SDS011;47633;51.494;5.386;2022-12-07T07:17:15;2.85;;;0.90;;
61709;SDS011;47633;51.494;5.386;2022-12-07T07:19:40;2.42;;;0.70;;
61709;SDS011;47633;51.494;5.386;2022-12-07T07:22:06;1.67;;;0.70;;
61709;SDS011;47633;51.494;5.386;2022-12-07T07:24:31;2.78;;;0.77;;
61709;SDS011;47633;51.494;5.386;2022-12-07T07:26:56;2.83;;;0.85;;
61709;SDS011;47633;51.494;5.386;2022-12-07T07:29:22;2.13;;;0.70;;
61709;SDS011;47633;51.494;5.386;2022-12-07T07:31:47;2.60;;;0.80;;
61709;SDS011;47633;51.494;5.386;2022-12-07T07:34:12;2.50;;;0.80;;
61709;SDS011;47633;51.494;5.386;2022-12-07T07:36:37;2.63;;;0.77;;
61709;SDS011;47633;51.494;5.386;2022-12-07T07:39:03;2.80;;;0.87;;
61709;SDS011;47633;51.494;5.386;2022-12-07T07:41:28;2.42;;;0.80;;
61709;SDS011;47633;51.494;5.386;2022-12-07T07:43:54;2.17;;;0.90;;
61709;SDS011;47633;51.494;5.386;2022-12-07T07:46:19;3.25;;;0.73;;
61709;SDS011;47633;51.494;5.386;2022-12-07T07:48:44;2.25;;;0.70;;
61709;SDS011;47633;51.494;5.386;2022-12-07T07:51:09;3.13;;;0.68;;
61709;SDS011;47633;51.494;5.386;2022-12-07T07:53:35;3.20;;;0.82;;
61709;SDS011;47633;51.494;5.386;2022-12-07T07:56:00;2.70;;;0.90;;
61709;SDS011;47633;51.494;5.386;2022-12-07T07:58:25;3.22;;;0.93;;
61709;SDS011;47633;51.494;5.386;2022-12-07T08:00:51;2.65;;;0.80;;
61709;SDS011;47633;51.494;5.386;2022-12-07T08:03:16;2.78;;;0.70;;
61709;SDS011;47633;51.494;5.386;2022-12-07T08:05:42;4.97;;;0.82;;
61709;SDS011;47633;51.494;5.386;2022-12-07T08:08:07;5.00;;;1.23;;
61709;SDS011;47633;51.494;5.386;2022-12-07T08:10:32;2.97;;;0.93;;
61709;SDS011;47633;51.494;5.386;2022-12-07T08:12:59;1.88;;;0.75;;
61709;SDS011;47633;51.494;5.386;2022-12-07T08:15:39;5.55;;;1.30;;
61709;SDS011;47633;51.494;5.386;2022-12-07T08:18:06;5.68;;;1.17;;
61709;SDS011;47633;51.494;5.386;2022-12-07T08:20:31;3.33;;;0.80;;
61709;SDS011;47633;51.494;5.386;2022-12-07T08:22:58;5.53;;;1.40;;
61709;SDS011;47633;51.494;5.386;2022-12-07T08:25:23;4.80;;;1.00;;
61709;SDS011;47633;51.494;5.386;2022-12-07T08:27:49;4.97;;;1.25;;
61709;SDS011;47633;51.494;5.386;2022-12-07T08:30:15;5.22;;;1.15;;
61709;SDS011;47633;51.494;5.386;2022-12-07T08:32:41;5.47;;;1.08;;
61709;SDS011;47633;51.494;5.386;2022-12-07T08:35:06;6.45;;;1.30;;
61709;SDS011;47633;51.494;5.386;2022-12-07T08:37:32;6.95;;;1.25;;
61709;SDS011;47633;51.494;5.386;2022-12-07T08:39:58;4.82;;;1.10;;
61709;SDS011;47633;51.494;5.386;2022-12-07T08:42:23;6.97;;;1.35;;
61709;SDS011;47633;51.494;5.386;2022-12-07T08:44:52;4.20;;;0.90;;
61709;SDS011;47633;51.494;5.386;2022-12-07T08:47:18;4.15;;;1.10;;
61709;SDS011;47633;51.494;5.386;2022-12-07T08:49:44;4.57;;;0.90;;
61709;SDS011;47633;51.494;5.386;2022-12-07T08:52:13;7.53;;;1.20;;
61709;SDS011;47633;51.494;5.386;2022-12-07T08:54:39;5.60;;;0.93;;
61709;SDS011;47633;51.494;5.386;2022-12-07T08:57:05;5.88;;;1.50;;
61709;SDS011;47633;51.494;5.386;2022-12-07T08:59:32;9.10;;;1.13;;
61709;SDS011;47633;51.494;5.386;2022-12-07T09:02:00;8.30;;;1.20;;
61709;SDS011;47633;51.494;5.386;2022-12-07T09:04:26;6.03;;;1.17;;
61709;SDS011;47633;51.494;5.386;2022-12-07T09:06:53;8.75;;;1.20;;
61709;SDS011;47633;51.494;5.386;2022-12-07T09:09:19;5.22;;;1.08;;
61709;SDS011;47633;51.494;5.386;2022-12-07T09:11:44;6.43;;;1.10;;
61709;SDS011;47633;51.494;5.386;2022-12-07T09:14:10;10.32;;;1.52;;
61709;SDS011;47633;51.494;5.386;2022-12-07T09:16:37;6.18;;;1.10;;
61709;SDS011;47633;51.494;5.386;2022-12-07T09:19:02;7.07;;;1.30;;
61709;SDS011;47633;51.494;5.386;2022-12-07T09:21:28;6.70;;;1.38;;
61709;SDS011;47633;51.494;5.386;2022-12-07T09:23:53;4.75;;;1.00;;
61709;SDS011;47633;51.494;5.386;2022-12-07T09:26:18;5.80;;;1.20;;
61709;SDS011;47633;51.494;5.386;2022-12-07T09:28:44;5.32;;;1.20;;
61709;SDS011;47633;51.494;5.386;2022-12-07T09:31:09;6.20;;;1.00;;
61709;SDS011;47633;51.494;5.386;2022-12-07T09:33:34;6.13;;;1.00;;
61709;SDS011;47633;51.494;5.386;2022-12-07T09:36:00;3.85;;;1.00;;
61709;SDS011;47633;51.494;5.386;2022-12-07T09:38:25;6.15;;;1.10;;
61709;SDS011;47633;51.494;5.386;2022-12-07T09:40:51;5.68;;;1.30;;
61709;SDS011;47633;51.494;5.386;2022-12-07T09:43:20;6.90;;;1.33;;
61709;SDS011;47633;51.494;5.386;2022-12-07T09:45:48;7.75;;;1.05;;
61709;SDS011;47633;51.494;5.386;2022-12-07T09:48:29;5.88;;;1.08;;
61709;SDS011;47633;51.494;5.386;2022-12-07T09:51:01;5.90;;;1.55;;
61709;SDS011;47633;51.494;5.386;2022-12-07T09:55:57;4.10;;;0.88;;
61709;SDS011;47633;51.494;5.386;2022-12-07T09:58:26;12.68;;;1.67;;
61709;SDS011;47633;51.494;5.386;2022-12-07T10:01:05;7.47;;;1.30;;
61709;SDS011;47633;51.494;5.386;2022-12-07T10:03:31;5.93;;;1.13;;
61709;SDS011;47633;51.494;5.386;2022-12-07T10:05:56;4.93;;;1.25;;
61709;SDS011;47633;51.494;5.386;2022-12-07T10:08:22;8.38;;;1.02;;
61709;SDS011;47633;51.494;5.386;2022-12-07T10:10:53;6.85;;;1.20;;
61709;SDS011;47633;51.494;5.386;2022-12-07T10:13:34;6.40;;;1.08;;
61709;SDS011;47633;51.494;5.386;2022-12-07T10:16:02;7.13;;;1.30;;
61709;SDS011;47633;51.494;5.386;2022-12-07T10:18:32;5.80;;;1.40;;
61709;SDS011;47633;51.494;5.386;2022-12-07T10:23:39;9.82;;;1.30;;
61709;SDS011;47633;51.494;5.386;2022-12-07T10:29:14;6.00;;;1.10;;
61709;SDS011;47633;51.494;5.386;2022-12-07T10:31:42;8.13;;;1.63;;
61709;SDS011;47633;51.494;5.386;2022-12-07T10:42:08;6.63;;;1.33;;
61709;SDS011;47633;51.494;5.386;2022-12-07T10:44:47;10.65;;;1.30;;
61709;SDS011;47633;51.494;5.386;2022-12-07T10:52:23;7.00;;;1.37;;
61709;SDS011;47633;51.494;5.386;2022-12-07T11:05:59;9.20;;;1.45;;
61709;SDS011;47633;51.494;5.386;2022-12-07T11:08:52;7.50;;;1.67;;
61709;SDS011;47633;51.494;5.386;2022-12-07T11:11:36;5.85;;;1.17;;
61709;SDS011;47633;51.494;5.386;2022-12-07T11:16:57;10.63;;;1.42;;
61709;SDS011;47633;51.494;5.386;2022-12-07T11:22:37;6.38;;;1.00;;
61709;SDS011;47633;51.494;5.386;2022-12-07T11:31:03;8.48;;;1.52;;
61709;SDS011;47633;51.494;5.386;2022-12-07T11:33:45;5.90;;;1.10;;
61709;SDS011;47633;51.494;5.386;2022-12-07T11:36:23;11.82;;;1.20;;
61709;SDS011;47633;51.494;5.386;2022-12-07T11:39:02;4.75;;;1.10;;
61709;SDS011;47633;51.494;5.386;2022-12-07T11:41:35;7.50;;;1.13;;
61709;SDS011;47633;51.494;5.386;2022-12-07T11:44:47;5.18;;;1.10;;
61709;SDS011;47633;51.494;5.386;2022-12-07T11:47:07;5.40;;;1.10;;
61709;SDS011;47633;51.494;5.386;2022-12-07T11:49:46;8.32;;;1.52;;
61709;SDS011;47633;51.494;5.386;2022-12-07T11:52:16;5.60;;;1.30;;
61709;SDS011;47633;51.494;5.386;2022-12-07T11:54:47;6.57;;;1.52;;
61709;SDS011;47633;51.494;5.386;2022-12-07T11:57:19;4.65;;;1.27;;
61709;SDS011;47633;51.494;5.386;2022-12-07T11:59:53;5.30;;;0.85;;
61709;SDS011;47633;51.494;5.386;2022-12-07T12:02:26;7.57;;;1.10;;
61709;SDS011;47633;51.494;5.386;2022-12-07T12:07:32;13.00;;;1.40;;
61709;SDS011;47633;51.494;5.386;2022-12-07T12:10:04;4.25;;;1.70;;
61709;SDS011;47633;51.494;5.386;2022-12-07T12:15:47;5.20;;;0.82;;
61709;SDS011;47633;51.494;5.386;2022-12-07T12:21:30;5.32;;;1.20;;
61709;SDS011;47633;51.494;5.386;2022-12-07T12:26:26;5.75;;;1.55;;
61709;SDS011;47633;51.494;5.386;2022-12-07T12:28:58;7.47;;;1.13;;
61709;SDS011;47633;51.494;5.386;2022-12-07T12:34:03;4.10;;;1.00;;
61709;SDS011;47633;51.494;5.386;2022-12-07T12:39:16;4.15;;;1.33;;
61709;SDS011;47633;51.494;5.386;2022-12-07T12:54:25;6.95;;;1.10;;
61709;SDS011;47633;51.494;5.386;2022-12-07T12:59:25;5.13;;;1.02;;
61709;SDS011;47633;51.494;5.386;2022-12-07T13:02:05;7.43;;;1.10;;
61709;SDS011;47633;51.494;5.386;2022-12-07T13:04:54;5.50;;;1.00;;
61709;SDS011;47633;51.494;5.386;2022-12-07T13:12:58;7.40;;;1.30;;
61709;SDS011;47633;51.494;5.386;2022-12-07T13:15:38;3.22;;;0.70;;
61709;SDS011;47633;51.494;5.386;2022-12-07T13:23:23;6.07;;;0.90;;
61709;SDS011;47633;51.494;5.386;2022-12-07T13:26:01;3.90;;;0.93;;
61709;SDS011;47633;51.494;5.386;2022-12-07T13:28:35;3.65;;;0.95;;
61709;SDS011;47633;51.494;5.386;2022-12-07T13:31:12;6.00;;;1.10;;
61709;SDS011;47633;51.494;5.386;2022-12-07T13:33:57;4.72;;;0.90;;
61709;SDS011;47633;51.494;5.386;2022-12-07T13:36:23;5.30;;;0.95;;
61709;SDS011;47633;51.494;5.386;2022-12-07T13:38:52;4.72;;;1.20;;
61709;SDS011;47633;51.494;5.386;2022-12-07T13:41:21;3.90;;;0.93;;
61709;SDS011;47633;51.494;5.386;2022-12-07T13:43:50;9.15;;;1.00;;
61709;SDS011;47633;51.494;5.386;2022-12-07T13:46:26;6.03;;;1.08;;
61709;SDS011;47633;51.494;5.386;2022-12-07T13:49:15;6.28;;;1.00;;
61709;SDS011;47633;51.494;5.386;2022-12-07T13:51:42;3.00;;;0.73;;
61709;SDS011;47633;51.494;5.386;2022-12-07T13:54:09;2.80;;;0.63;;
61709;SDS011;47633;51.494;5.386;2022-12-07T13:56:36;2.55;;;0.70;;
61709;SDS011;47633;51.494;5.386;2022-12-07T13:59:04;5.13;;;1.13;;
61709;SDS011;47633;51.494;5.386;2022-12-07T14:01:37;2.55;;;0.90;;
61709;SDS011;47633;51.494;5.386;2022-12-07T14:04:18;3.35;;;0.90;;
61709;SDS011;47633;51.494;5.386;2022-12-07T14:06:53;5.03;;;1.10;;
61709;SDS011;47633;51.494;5.386;2022-12-07T14:09:20;3.47;;;0.90;;
61709;SDS011;47633;51.494;5.386;2022-12-07T14:11:47;3.80;;;1.10;;
61709;SDS011;47633;51.494;5.386;2022-12-07T14:14:16;5.18;;;1.00;;
61709;SDS011;47633;51.494;5.386;2022-12-07T14:16:54;3.20;;;1.00;;
61709;SDS011;47633;51.494;5.386;2022-12-07T14:19:44;5.35;;;0.90;;
61709;SDS011;47633;51.494;5.386;2022-12-07T14:22:24;5.75;;;0.95;;
61709;SDS011;47633;51.494;5.386;2022-12-07T14:30:21;4.32;;;0.90;;
61709;SDS011;47633;51.494;5.386;2022-12-07T14:32:50;3.72;;;0.82;;
61709;SDS011;47633;51.494;5.386;2022-12-07T14:35:18;5.03;;;0.98;;
61709;SDS011;47633;51.494;5.386;2022-12-07T14:37:45;4.60;;;1.00;;
61709;SDS011;47633;51.494;5.386;2022-12-07T14:40:13;4.75;;;0.93;;
61709;SDS011;47633;51.494;5.386;2022-12-07T14:42:39;2.15;;;0.65;;
61709;SDS011;47633;51.494;5.386;2022-12-07T14:45:11;4.93;;;1.20;;
61709;SDS011;47633;51.494;5.386;2022-12-07T14:47:39;3.47;;;0.80;;
61709;SDS011;47633;51.494;5.386;2022-12-07T14:50:04;5.55;;;1.08;;
61709;SDS011;47633;51.494;5.386;2022-12-07T14:52:30;3.35;;;0.85;;
61709;SDS011;47633;51.494;5.386;2022-12-07T14:54:56;3.85;;;1.10;;
61709;SDS011;47633;51.494;5.386;2022-12-07T14:57:21;5.15;;;0.90;;
61709;SDS011;47633;51.494;5.386;2022-12-07T14:59:47;3.83;;;1.00;;
61709;SDS011;47633;51.494;5.386;2022-12-07T15:02:13;3.27;;;0.83;;
61709;SDS011;47633;51.494;5.386;2022-12-07T15:04:39;4.30;;;0.90;;
61709;SDS011;47633;51.494;5.386;2022-12-07T15:07:05;5.63;;;1.08;;
61709;SDS011;47633;51.494;5.386;2022-12-07T15:09:35;3.67;;;0.98;;
61709;SDS011;47633;51.494;5.386;2022-12-07T15:12:00;2.73;;;0.83;;
61709;SDS011;47633;51.494;5.386;2022-12-07T15:14:25;6.70;;;1.00;;
61709;SDS011;47633;51.494;5.386;2022-12-07T15:16:51;2.08;;;1.08;;
61709;SDS011;47633;51.494;5.386;2022-12-07T15:19:19;5.43;;;0.90;;
61709;SDS011;47633;51.494;5.386;2022-12-07T15:21:48;2.33;;;0.90;;
61709;SDS011;47633;51.494;5.386;2022-12-07T15:24:13;3.90;;;0.95;;
61709;SDS011;47633;51.494;5.386;2022-12-07T15:26:40;3.63;;;0.82;;
61709;SDS011;47633;51.494;5.386;2022-12-07T15:29:05;2.80;;;0.98;;
61709;SDS011;47633;51.494;5.386;2022-12-07T15:31:32;11.25;;;2.35;;
61709;SDS011;47633;51.494;5.386;2022-12-07T15:33:57;2.40;;;0.85;;
61709;SDS011;47633;51.494;5.386;2022-12-07T15:36:24;4.00;;;1.00;;
61709;SDS011;47633;51.494;5.386;2022-12-07T15:38:51;2.88;;;0.90;;
61709;SDS011;47633;51.494;5.386;2022-12-07T15:41:17;3.75;;;0.88;;
61709;SDS011;47633;51.494;5.386;2022-12-07T15:43:43;3.15;;;0.80;;
61709;SDS011;47633;51.494;5.386;2022-12-07T15:46:31;4.35;;;0.60;;
61709;SDS011;47633;51.494;5.386;2022-12-07T15:48:57;1.30;;;0.50;;
61709;SDS011;47633;51.494;5.386;2022-12-07T15:51:23;2.95;;;0.77;;
61709;SDS011;47633;51.494;5.386;2022-12-07T15:53:48;3.60;;;0.70;;
61709;SDS011;47633;51.494;5.386;2022-12-07T15:56:14;4.57;;;0.70;;
61709;SDS011;47633;51.494;5.386;2022-12-07T15:58:39;3.28;;;1.13;;
61709;SDS011;47633;51.494;5.386;2022-12-07T16:01:11;2.40;;;0.70;;
61709;SDS011;47633;51.494;5.386;2022-12-07T16:03:37;5.43;;;0.80;;
61709;SDS011;47633;51.494;5.386;2022-12-07T16:06:03;2.05;;;0.70;;
61709;SDS011;47633;51.494;5.386;2022-12-07T16:08:28;2.83;;;0.80;;
61709;SDS011;47633;51.494;5.386;2022-12-07T16:10:53;4.63;;;0.80;;
61709;SDS011;47633;51.494;5.386;2022-12-07T16:13:19;2.25;;;0.70;;
61709;SDS011;47633;51.494;5.386;2022-12-07T16:15:44;3.05;;;0.80;;
61709;SDS011;47633;51.494;5.386;2022-12-07T16:18:09;2.65;;;0.70;;
61709;SDS011;47633;51.494;5.386;2022-12-07T16:20:35;3.38;;;0.88;;
61709;SDS011;47633;51.494;5.386;2022-12-07T16:23:00;2.72;;;0.80;;
61709;SDS011;47633;51.494;5.386;2022-12-07T16:25:26;2.42;;;0.80;;
61709;SDS011;47633;51.494;5.386;2022-12-07T16:27:52;3.28;;;0.90;;
61709;SDS011;47633;51.494;5.386;2022-12-07T16:30:17;6.65;;;1.00;;
61709;SDS011;47633;51.494;5.386;2022-12-07T16:32:43;3.15;;;0.80;;
61709;SDS011;47633;51.494;5.386;2022-12-07T16:35:08;2.67;;;0.80;;
61709;SDS011;47633;51.494;5.386;2022-12-07T16:37:34;3.75;;;0.70;;
61709;SDS011;47633;51.494;5.386;2022-12-07T16:40:00;3.17;;;0.80;;
61709;SDS011;47633;51.494;5.386;2022-12-07T16:42:26;3.67;;;0.90;;
61709;SDS011;47633;51.494;5.386;2022-12-07T16:44:51;7.03;;;0.82;;
61709;SDS011;47633;51.494;5.386;2022-12-07T16:47:17;2.80;;;0.75;;
61709;SDS011;47633;51.494;5.386;2022-12-07T16:49:42;1.35;;;0.60;;
61709;SDS011;47633;51.494;5.386;2022-12-07T16:52:08;2.85;;;0.70;;
61709;SDS011;47633;51.494;5.386;2022-12-07T16:54:33;3.65;;;0.85;;
61709;SDS011;47633;51.494;5.386;2022-12-07T16:56:59;2.53;;;0.90;;
61709;SDS011;47633;51.494;5.386;2022-12-07T16:59:24;2.35;;;0.70;;
61709;SDS011;47633;51.494;5.386;2022-12-07T17:01:50;2.85;;;0.80;;
61709;SDS011;47633;51.494;5.386;2022-12-07T17:04:15;2.42;;;0.82;;
61709;SDS011;47633;51.494;5.386;2022-12-07T17:06:40;3.83;;;0.93;;